Aiviq — WDG2524 — position and weather

sailwx.info

Track history (hours):
 
Tides and Currents Weather Stations Pressure Air Temp Water Temp Dewpoint Dewpoint Depression Visibility Wind Speed Wind Dir Waves Ship Positions

Aiviq

Owner: Offshore Service Vessels, L.L.C., Galliano, LA. More information available from US FCC via Universal Licensing System and Coast Guard Vessel Documentation Center.

Last reported at 2014-Oct-23 02:21 UTC. Time now 2014-Oct-23 05:16 UTC.
Position N 47°59' W 122°13'.

Length 109 m; draft 9.3 m.

Type: Towing. MMSI: 367141000.

Date/timePositionNaut miles runAvg speedWind from/ knotsBaromVisibWave heightAir tempDewpointWater temp
2014-Oct-23 02:21N 47°59' W 122°13'0 0.0
2014-Oct-23 01:33N 47°59' W 122°13'0 0.0
2014-Oct-23 00:09N 47°59' W 122°13'0 0.0
2014-Oct-22 23:27N 47°59' W 122°13'0 0.1
2014-Oct-22 21:33N 47°59' W 122°14'4 5.1
2014-Oct-22 20:43N 47°58' W 122°20'0 1.4
2014-Oct-22 20:33N 47°58' W 122°20'0 0.0
2014-Oct-22 20:33N 47°58' W 122°20'0 0.3
2014-Oct-22 19:32N 47°58' W 122°20'6 6.5
2014-Oct-22 18:33N 47°52' W 122°25'1 8.6
2014-Oct-22 18:23N 47°51' W 122°25'4 5.2
2014-Oct-22 17:33N 47°54' W 122°21'0 0.0
2014-Oct-22 17:33N 47°54' W 122°21'5 5.4
2014-Oct-22 16:33N 47°59' W 122°16'2 1.8
2014-Oct-22 15:28N 47°59' W 122°13'0 0.0
2014-Oct-22 07:28N 47°59' W 122°13'0 0.0
2014-Oct-22 06:16N 47°59' W 122°13'0 0.0
2014-Oct-22 04:16N 47°59' W 122°13'0 0.0
2014-Oct-22 03:28N 47°59' W 122°13'0 0.0
2014-Oct-22 02:10N 47°59' W 122°13'0 0.0
2014-Oct-22 01:28N 47°59' W 122°13'0 0.0
2014-Oct-21 22:12N 47°59' W 122°13'3 4.4
2014-Oct-21 21:33N 47°58' W 122°17'011.9
2014-Oct-21 21:31N 47°58' W 122°18'8 7.9
2014-Oct-21 20:33N 47°51' W 122°23'011.5
2014-Oct-21 20:31N 47°52' W 122°23'1 0.9
2014-Oct-21 19:33N 47°52' W 122°24'1 6.2
2014-Oct-21 19:26N 47°52' W 122°25'3 3.6
2014-Oct-21 18:33N 47°54' W 122°21'0 1.8
2014-Oct-21 18:26N 47°54' W 122°21'0 0.3
2014-Oct-21 17:33N 47°54' W 122°21'0 5.1
2014-Oct-21 17:31N 47°54' W 122°21'6 6.5
2014-Oct-21 16:33N 47°59' W 122°14'1 0.3
2014-Oct-21 14:32N 47°59' W 122°13'0 0.0
2014-Oct-21 13:32N 47°59' W 122°13'0 0.0
2014-Oct-21 12:32N 47°59' W 122°13'0 0.0
2014-Oct-21 11:14N 47°59' W 122°13'0 0.0
2014-Oct-21 04:29N 47°59' W 122°13'0 0.0
2014-Oct-21 02:14N 47°59' W 122°13'0 0.0
2014-Oct-21 01:20N 47°59' W 122°13'0 0.0
2014-Oct-21 00:32N 47°59' W 122°13'0 0.0
2014-Oct-20 22:32N 47°59' W 122°13'0 0.0
2014-Oct-20 21:14N 47°59' W 122°13'0 0.0
2014-Oct-20 14:26N 47°59' W 122°13'0 0.0
2014-Oct-20 11:05N 47°59' W 122°13'0 0.0
2014-Oct-20 10:14N 47°59' W 122°13'0 0.0
2014-Oct-20 08:20N 47°59' W 122°13'0 0.0
2014-Oct-19 21:05N 47°59' W 122°13'0 0.0
2014-Oct-19 20:29N 47°59' W 122°13'0 0.0
2014-Oct-19 18:26N 47°59' W 122°13'0 0.0
2014-Oct-19 17:32N 47°59' W 122°13'0 0.0
2014-Oct-19 15:32N 47°59' W 122°13'0 0.0
2014-Oct-19 06:26N 47°59' W 122°13'0 0.0
2014-Oct-18 21:14N 47°59' W 122°13'0 0.0
2014-Oct-18 17:14N 47°59' W 122°13'0 0.0
2014-Oct-18 16:32N 47°59' W 122°13'0 0.0
2014-Oct-18 15:32N 47°59' W 122°13'0 0.0
2014-Oct-18 14:32N 47°59' W 122°13'0 0.0
2014-Oct-18 13:32N 47°59' W 122°13'0 0.0
2014-Oct-18 11:26N 47°59' W 122°13'0 0.0
2014-Oct-17 21:26N 47°59' W 122°13'0 0.0
2014-Oct-17 15:32N 47°59' W 122°13'0 0.0
2014-Oct-17 14:14N 47°59' W 122°13'0 0.0
2014-Oct-16 14:31N 47°59' W 122°13'0 0.0
2014-Oct-16 13:32N 47°59' W 122°13'0 0.0
2014-Oct-16 12:31N 47°59' W 122°13'0 0.0
2014-Oct-16 11:26N 47°59' W 122°13'0 0.0
2014-Oct-16 10:26N 47°59' W 122°13'0 0.0
2014-Oct-16 09:19N 47°59' W 122°13'0 0.0
2014-Oct-16 08:31N 47°59' W 122°13'0 0.0
2014-Oct-16 07:31N 47°59' W 122°13'0 0.0
2014-Oct-16 06:14N 47°59' W 122°13'0 0.0
2014-Oct-15 23:07N 47°59' W 122°13'0 0.0
2014-Oct-15 22:13N 47°59' W 122°13'0 0.0
2014-Oct-15 18:10N 47°59' W 122°13'0 0.0
2014-Oct-15 16:31N 47°59' W 122°13'0 0.0
2014-Oct-15 15:19N 47°59' W 122°13'0 0.0
2014-Oct-15 14:19N 47°59' W 122°13'0 0.0
2014-Oct-15 13:31N 47°59' W 122°13'0 0.0
2014-Oct-15 12:31N 47°59' W 122°13'0 0.0
2014-Oct-15 11:31N 47°59' W 122°13'0 0.0
2014-Oct-15 10:25N 47°59' W 122°13'0 0.0
2014-Oct-15 09:31N 47°59' W 122°13'0 0.0
2014-Oct-15 08:31N 47°59' W 122°13'0 0.0
2014-Oct-15 02:19N 47°59' W 122°13'0 0.0
2014-Oct-15 01:31N 47°59' W 122°13'0 0.0
2014-Oct-15 00:19N 47°59' W 122°13'0 0.0
2014-Oct-14 23:25N 47°59' W 122°13'0 0.0
2014-Oct-14 21:07N 47°59' W 122°13'0 0.0
2014-Oct-14 15:13N 47°59' W 122°13'0 0.0
2014-Oct-14 14:25N 47°59' W 122°13'0 0.0
2014-Oct-14 13:31N 47°59' W 122°13'0 0.0
2014-Oct-14 12:31N 47°59' W 122°13'0 0.0
2014-Oct-14 11:31N 47°59' W 122°13'0 0.0
2014-Oct-14 10:31N 47°59' W 122°13'0 0.0
2014-Oct-14 09:31N 47°59' W 122°13'0 0.0
2014-Oct-14 00:10N 47°59' W 122°13'0 0.0
2014-Oct-13 22:19N 47°59' W 122°13'0 0.0
2014-Oct-13 21:07N 47°59' W 122°13'0 0.0
2014-Oct-13 20:31N 47°59' W 122°13'0 0.0
2014-Oct-13 19:31N 47°59' W 122°13'0 0.0
2014-Oct-13 18:28N 47°59' W 122°13'0 0.0
2014-Oct-13 17:31N 47°59' W 122°13'0 0.0
2014-Oct-13 16:28N 47°59' W 122°13'0 0.0
2014-Oct-13 15:19N 47°59' W 122°13'0 0.0
2014-Oct-13 14:31N 47°59' W 122°13'0 0.0
2014-Oct-13 13:31N 47°59' W 122°13'0 0.0
2014-Oct-13 12:31N 47°59' W 122°13'0 0.0
2014-Oct-13 11:31N 47°59' W 122°13'0 0.0
2014-Oct-13 10:31N 47°59' W 122°13'0 0.0
2014-Oct-13 09:31N 47°59' W 122°13'0 0.0
2014-Oct-13 08:31N 47°59' W 122°13'0 0.0
2014-Oct-13 07:31N 47°59' W 122°13'0 0.0
2014-Oct-13 06:25N 47°59' W 122°13'0 0.0
2014-Oct-13 05:31N 47°59' W 122°13'0 0.0
2014-Oct-13 04:16N 47°59' W 122°13'  
Track history (hours):
 
Tides and Currents Weather Stations Pressure Air Temp Water Temp Dewpoint Dewpoint Depression Visibility Wind Speed Wind Dir Waves Ship Positions

Aiviq

Owner: Offshore Service Vessels, L.L.C., Galliano, LA. More information available from US FCC via Universal Licensing System and Coast Guard Vessel Documentation Center.

Last reported at 2014-Oct-23 02:21 UTC. Time now 2014-Oct-23 05:16 UTC.
Position N 47°59' W 122°13'.

Length 109 m; draft 9.3 m.

Type: Towing. MMSI: 367141000.

Date/timePositionNaut miles runAvg speedWind from/ knotsBaromVisibWave heightAir tempDewpointWater temp
2014-Oct-23 02:21N 47°59' W 122°13'0 0.0
2014-Oct-23 01:33N 47°59' W 122°13'0 0.0
2014-Oct-23 00:09N 47°59' W 122°13'0 0.0
2014-Oct-22 23:27N 47°59' W 122°13'0 0.1
2014-Oct-22 21:33N 47°59' W 122°14'4 5.1
2014-Oct-22 20:43N 47°58' W 122°20'0 1.4
2014-Oct-22 20:33N 47°58' W 122°20'0 0.0
2014-Oct-22 20:33N 47°58' W 122°20'0 0.3
2014-Oct-22 19:32N 47°58' W 122°20'6 6.5
2014-Oct-22 18:33N 47°52' W 122°25'1 8.6
2014-Oct-22 18:23N 47°51' W 122°25'4 5.2
2014-Oct-22 17:33N 47°54' W 122°21'0 0.0
2014-Oct-22 17:33N 47°54' W 122°21'5 5.4
2014-Oct-22 16:33N 47°59' W 122°16'2 1.8
2014-Oct-22 15:28N 47°59' W 122°13'0 0.0
2014-Oct-22 07:28N 47°59' W 122°13'0 0.0
2014-Oct-22 06:16N 47°59' W 122°13'0 0.0
2014-Oct-22 04:16N 47°59' W 122°13'0 0.0
2014-Oct-22 03:28N 47°59' W 122°13'0 0.0
2014-Oct-22 02:10N 47°59' W 122°13'0 0.0
2014-Oct-22 01:28N 47°59' W 122°13'0 0.0
2014-Oct-21 22:12N 47°59' W 122°13'3 4.4
2014-Oct-21 21:33N 47°58' W 122°17'011.9
2014-Oct-21 21:31N 47°58' W 122°18'8 7.9
2014-Oct-21 20:33N 47°51' W 122°23'011.5
2014-Oct-21 20:31N 47°52' W 122°23'1 0.9
2014-Oct-21 19:33N 47°52' W 122°24'1 6.2
2014-Oct-21 19:26N 47°52' W 122°25'3 3.6
2014-Oct-21 18:33N 47°54' W 122°21'0 1.8
2014-Oct-21 18:26N 47°54' W 122°21'0 0.3
2014-Oct-21 17:33N 47°54' W 122°21'0 5.1
2014-Oct-21 17:31N 47°54' W 122°21'6 6.5
2014-Oct-21 16:33N 47°59' W 122°14'1 0.3
2014-Oct-21 14:32N 47°59' W 122°13'0 0.0
2014-Oct-21 13:32N 47°59' W 122°13'0 0.0
2014-Oct-21 12:32N 47°59' W 122°13'0 0.0
2014-Oct-21 11:14N 47°59' W 122°13'0 0.0
2014-Oct-21 04:29N 47°59' W 122°13'0 0.0
2014-Oct-21 02:14N 47°59' W 122°13'0 0.0
2014-Oct-21 01:20N 47°59' W 122°13'0 0.0
2014-Oct-21 00:32N 47°59' W 122°13'0 0.0
2014-Oct-20 22:32N 47°59' W 122°13'0 0.0
2014-Oct-20 21:14N 47°59' W 122°13'0 0.0
2014-Oct-20 14:26N 47°59' W 122°13'0 0.0
2014-Oct-20 11:05N 47°59' W 122°13'0 0.0
2014-Oct-20 10:14N 47°59' W 122°13'0 0.0
2014-Oct-20 08:20N 47°59' W 122°13'0 0.0
2014-Oct-19 21:05N 47°59' W 122°13'0 0.0
2014-Oct-19 20:29N 47°59' W 122°13'0 0.0
2014-Oct-19 18:26N 47°59' W 122°13'0 0.0
2014-Oct-19 17:32N 47°59' W 122°13'0 0.0
2014-Oct-19 15:32N 47°59' W 122°13'0 0.0
2014-Oct-19 06:26N 47°59' W 122°13'0 0.0
2014-Oct-18 21:14N 47°59' W 122°13'0 0.0
2014-Oct-18 17:14N 47°59' W 122°13'0 0.0
2014-Oct-18 16:32N 47°59' W 122°13'0 0.0
2014-Oct-18 15:32N 47°59' W 122°13'0 0.0
2014-Oct-18 14:32N 47°59' W 122°13'0 0.0
2014-Oct-18 13:32N 47°59' W 122°13'0 0.0
2014-Oct-18 11:26N 47°59' W 122°13'0 0.0
2014-Oct-17 21:26N 47°59' W 122°13'0 0.0
2014-Oct-17 15:32N 47°59' W 122°13'0 0.0
2014-Oct-17 14:14N 47°59' W 122°13'0 0.0
2014-Oct-16 14:31N 47°59' W 122°13'0 0.0
2014-Oct-16 13:32N 47°59' W 122°13'0 0.0
2014-Oct-16 12:31N 47°59' W 122°13'0 0.0
2014-Oct-16 11:26N 47°59' W 122°13'0 0.0
2014-Oct-16 10:26N 47°59' W 122°13'0 0.0
2014-Oct-16 09:19N 47°59' W 122°13'0 0.0
2014-Oct-16 08:31N 47°59' W 122°13'0 0.0
2014-Oct-16 07:31N 47°59' W 122°13'0 0.0
2014-Oct-16 06:14N 47°59' W 122°13'0 0.0
2014-Oct-15 23:07N 47°59' W 122°13'0 0.0
2014-Oct-15 22:13N 47°59' W 122°13'0 0.0
2014-Oct-15 18:10N 47°59' W 122°13'0 0.0
2014-Oct-15 16:31N 47°59' W 122°13'0 0.0
2014-Oct-15 15:19N 47°59' W 122°13'0 0.0
2014-Oct-15 14:19N 47°59' W 122°13'0 0.0
2014-Oct-15 13:31N 47°59' W 122°13'0 0.0
2014-Oct-15 12:31N 47°59' W 122°13'0 0.0
2014-Oct-15 11:31N 47°59' W 122°13'0 0.0
2014-Oct-15 10:25N 47°59' W 122°13'0 0.0
2014-Oct-15 09:31N 47°59' W 122°13'0 0.0
2014-Oct-15 08:31N 47°59' W 122°13'0 0.0
2014-Oct-15 02:19N 47°59' W 122°13'0 0.0
2014-Oct-15 01:31N 47°59' W 122°13'0 0.0
2014-Oct-15 00:19N 47°59' W 122°13'0 0.0
2014-Oct-14 23:25N 47°59' W 122°13'0 0.0
2014-Oct-14 21:07N 47°59' W 122°13'0 0.0
2014-Oct-14 15:13N 47°59' W 122°13'0 0.0
2014-Oct-14 14:25N 47°59' W 122°13'0 0.0
2014-Oct-14 13:31N 47°59' W 122°13'0 0.0
2014-Oct-14 12:31N 47°59' W 122°13'0 0.0
2014-Oct-14 11:31N 47°59' W 122°13'0 0.0
2014-Oct-14 10:31N 47°59' W 122°13'0 0.0
2014-Oct-14 09:31N 47°59' W 122°13'0 0.0
2014-Oct-14 00:10N 47°59' W 122°13'0 0.0
2014-Oct-13 22:19N 47°59' W 122°13'0 0.0
2014-Oct-13 21:07N 47°59' W 122°13'0 0.0
2014-Oct-13 20:31N 47°59' W 122°13'0 0.0
2014-Oct-13 19:31N 47°59' W 122°13'0 0.0
2014-Oct-13 18:28N 47°59' W 122°13'0 0.0
2014-Oct-13 17:31N 47°59' W 122°13'0 0.0
2014-Oct-13 16:28N 47°59' W 122°13'0 0.0
2014-Oct-13 15:19N 47°59' W 122°13'0 0.0
2014-Oct-13 14:31N 47°59' W 122°13'0 0.0
2014-Oct-13 13:31N 47°59' W 122°13'0 0.0
2014-Oct-13 12:31N 47°59' W 122°13'0 0.0
2014-Oct-13 11:31N 47°59' W 122°13'0 0.0
2014-Oct-13 10:31N 47°59' W 122°13'0 0.0
2014-Oct-13 09:31N 47°59' W 122°13'0 0.0
2014-Oct-13 08:31N 47°59' W 122°13'0 0.0
2014-Oct-13 07:31N 47°59' W 122°13'0 0.0
2014-Oct-13 06:25N 47°59' W 122°13'0 0.0
2014-Oct-13 05:31N 47°59' W 122°13'0 0.0
2014-Oct-13 04:16N 47°59' W 122°13'  

Dump ship's entire track history